Time;durP1;ratioP1;P1;durP2;ratioP2;P2;SDS_P1;SDS_P2;PMS_P1;PMS_P2;Temp;Humidity;BMP_temperature;BMP_pressure;BME280_temperature;BME280_humidity;BME280_pressure;Samples;Min_cycle;Max_cycle;Signal;HPM_P1;HPM_P2
2023/01/25 00:00:45;;;;;;;13.68;8.05;;;;;;;4.48;100.00;99532.31;5064273;28;20492;-66
2023/01/25 00:03:10;;;;;;;13.82;8.68;;;;;;;4.60;100.00;99565.13;5065557;28;20122;-66
2023/01/25 00:05:36;;;;;;;11.18;7.22;;;;;;;4.70;100.00;99562.88;5084397;27;20543;-65
2023/01/25 00:08:01;;;;;;;13.60;7.68;;;;;;;4.85;100.00;99563.78;5085239;28;20461;-66
2023/01/25 00:10:27;;;;;;;12.45;7.93;;;;;;;4.87;100.00;99564.50;5061154;28;20024;-66
2023/01/25 00:12:52;;;;;;;12.70;7.28;;;;;;;4.83;100.00;99563.03;5073128;28;20631;-67
2023/01/25 00:15:18;;;;;;;12.05;7.47;;;;;;;4.82;100.00;99566.53;5084566;28;20027;-67
2023/01/25 00:17:43;;;;;;;12.15;7.55;;;;;;;4.91;100.00;99565.19;5074614;28;20488;-66
2023/01/25 00:20:09;;;;;;;12.75;7.55;;;;;;;4.96;100.00;99558.84;5084816;28;20450;-67
2023/01/25 00:22:35;;;;;;;11.18;7.93;;;;;;;5.01;100.00;99550.88;5082162;28;20039;-67
2023/01/25 00:25:00;;;;;;;12.00;7.00;;;;;;;4.99;100.00;99550.13;5066005;28;20031;-66
2023/01/25 00:27:26;;;;;;;12.55;7.25;;;;;;;4.96;100.00;99566.56;5063452;28;20075;-68
2023/01/25 00:29:51;;;;;;;12.35;7.53;;;;;;;4.90;100.00;99548.88;5064518;28;20031;-66
2023/01/25 00:32:19;;;;;;;14.18;7.55;;;;;;;4.97;100.00;99555.38;5080253;28;20110;-67
2023/01/25 00:34:49;;;;;;;13.05;7.72;;;;;;;4.97;100.00;99557.94;5098292;28;20055;-66
2023/01/25 00:37:27;;;;;;;11.82;7.30;;;;;;;5.01;100.00;99548.28;5085806;28;20028;-66
2023/01/25 00:39:53;;;;;;;10.73;7.18;;;;;;;5.10;100.00;99552.09;5101861;28;20609;-66
2023/01/25 00:42:19;;;;;;;10.52;6.97;;;;;;;5.09;100.00;99545.28;5065571;28;20039;-66
2023/01/25 00:44:44;;;;;;;12.05;7.10;;;;;;;5.17;100.00;99558.56;5085771;28;20520;-66
2023/01/25 00:47:11;;;;;;;11.30;7.35;;;;;;;5.11;100.00;99553.75;5088970;28;20031;-66
2023/01/25 00:49:38;;;;;;;11.43;7.18;;;;;;;5.03;100.00;99538.72;5066292;28;20382;-67
2023/01/25 00:52:03;;;;;;;11.57;7.35;;;;;;;5.01;100.00;99538.81;5082357;28;20032;-65
2023/01/25 00:54:29;;;;;;;11.43;7.22;;;;;;;4.98;100.00;99551.03;5085709;28;20070;-65
2023/01/25 00:56:55;;;;;;;11.30;7.50;;;;;;;4.96;100.00;99538.22;5068201;28;20034;-66
2023/01/25 00:59:21;;;;;;;10.20;7.35;;;;;;;4.95;100.00;99539.16;5080586;28;20024;-67
2023/01/25 01:01:47;;;;;;;11.02;6.80;;;;;;;4.96;100.00;99552.88;5085345;28;20134;-66
2023/01/25 01:04:13;;;;;;;12.48;7.63;;;;;;;4.92;100.00;99552.22;5083425;28;20036;-67
2023/01/25 01:06:39;;;;;;;11.13;7.45;;;;;;;4.85;100.00;99542.34;5068019;28;20042;-65
2023/01/25 01:09:06;;;;;;;11.13;7.63;;;;;;;4.91;100.00;99553.16;5086850;27;20023;-65
2023/01/25 01:11:32;;;;;;;11.40;7.28;;;;;;;4.92;98.90;99541.91;5069433;28;20134;-64
2023/01/25 01:13:58;;;;;;;12.48;7.45;;;;;;;4.97;98.91;99545.06;5070113;28;20031;-66
2023/01/25 01:16:23;;;;;;;11.60;6.97;;;;;;;4.74;99.72;99497.38;5085225;28;20142;-66
2023/01/25 01:18:49;;;;;;;11.07;6.97;;;;;;;5.08;100.00;99548.78;5072194;28;20119;-66
2023/01/25 01:21:15;;;;;;;11.07;7.50;;;;;;;5.00;100.00;99542.31;5084235;28;20490;-65
2023/01/25 01:23:41;;;;;;;10.57;6.95;;;;;;;4.88;100.00;99537.84;5083033;28;20038;-65
2023/01/25 01:26:11;;;;;;;10.90;7.20;;;;;;;4.79;100.00;99544.34;5068754;28;20119;-66
2023/01/25 01:28:39;;;;;;;10.98;6.93;;;;;;;4.86;100.00;99546.59;5106515;27;21235;-66
2023/01/25 01:31:08;;;;;;;12.23;7.03;;;;;;;4.57;99.45;99505.22;5088475;27;20465;-65
2023/01/25 01:33:33;;;;;;;10.50;7.18;;;;;;;4.74;99.51;99536.03;5088794;28;20032;-65
2023/01/25 01:36:12;;;;;;;10.68;7.22;;;;;;;4.85;99.54;99535.44;5070138;28;20042;-65
2023/01/25 01:38:38;;;;;;;12.35;6.75;;;;;;;4.87;99.79;99535.34;5085493;28;20024;-66
2023/01/25 01:41:03;;;;;;;10.80;6.75;;;;;;;4.46;99.42;99449.16;5086960;28;20603;-63
2023/01/25 01:43:29;;;;;;;12.00;7.68;;;;;;;4.86;100.00;99538.84;5087679;28;20036;-67
2023/01/25 01:46:04;;;;;;;11.60;7.20;;;;;;;4.91;100.00;99548.00;5075539;28;20035;-66
2023/01/25 01:48:39;;;;;;;10.93;6.82;;;;;;;4.98;100.00;99533.84;5084841;28;20213;-66
2023/01/25 01:51:19;;;;;;;11.25;6.95;;;;;;;5.00;100.00;99544.91;5068894;28;20028;-65
2023/01/25 01:53:53;;;;;;;11.73;7.18;;;;;;;5.04;100.00;99542.97;5088458;28;20378;-66
2023/01/25 01:56:33;;;;;;;12.52;7.25;;;;;;;5.06;100.00;99553.22;5081869;27;20271;-66
2023/01/25 01:58:59;;;;;;;;;;;;;;;5.06;100.00;99554.03;5072611;28;20024;-66
2023/01/25 02:01:24;;;;;;;10.27;6.05;;;;;;;4.77;100.00;99502.38;5065516;27;19916;-65
2023/01/25 02:03:50;;;;;;;10.73;6.80;;;;;;;4.91;99.82;99534.25;5072563;28;20032;-65
2023/01/25 02:06:43;;;;;;;11.07;6.88;;;;;;;4.93;98.92;99551.31;5070743;28;20139;-65
2023/01/25 02:09:09;;;;;;;11.00;6.65;;;;;;;4.88;99.46;99555.06;5082585;27;20938;-67
2023/01/25 02:11:35;;;;;;;11.00;6.95;;;;;;;4.88;99.52;99565.38;5082713;28;20126;-64
2023/01/25 02:14:01;;;;;;;12.48;7.45;;;;;;;4.88;99.81;99557.63;5067770;28;20031;-66
2023/01/25 02:16:27;;;;;;;10.50;6.85;;;;;;;4.92;100.00;99553.97;5066363;28;20669;-65
2023/01/25 02:18:54;;;;;;;12.23;7.45;;;;;;;5.05;98.96;99549.78;5083051;28;20084;-65
2023/01/25 02:21:22;;;;;;;11.68;8.00;;;;;;;4.94;99.64;99542.63;5086981;28;20015;-66
2023/01/25 02:23:54;;;;;;;13.77;7.40;;;;;;;4.91;99.97;99534.25;5070775;28;20024;-66
2023/01/25 02:26:19;;;;;;;11.18;7.18;;;;;;;5.00;99.54;99529.44;5084936;28;20080;-66
2023/01/25 02:28:58;;;;;;;11.98;7.53;;;;;;;4.90;100.00;99532.59;5085521;28;20043;-66
2023/01/25 02:31:23;;;;;;;12.07;8.00;;;;;;;4.67;100.00;99529.53;5079558;27;20065;-66
2023/01/25 02:33:49;;;;;;;10.80;7.82;;;;;;;4.56;100.00;99525.00;5070096;28;20146;-67
2023/01/25 02:36:32;;;;;;;11.05;7.63;;;;;;;4.66;100.00;99529.66;5069706;28;20427;-65
2023/01/25 02:39:27;;;;;;;12.60;7.70;;;;;;;4.60;100.00;99536.81;5078582;27;20033;-66
2023/01/25 02:41:52;;;;;;;11.48;7.95;;;;;;;4.71;100.00;99541.38;5067030;27;20031;-66
2023/01/25 02:44:25;;;;;;;12.30;7.80;;;;;;;4.79;100.00;99540.94;5087169;28;20058;-67
2023/01/25 02:46:51;;;;;;;12.02;8.05;;;;;;;4.77;100.00;99537.63;5072845;28;20039;-66
2023/01/25 02:49:18;;;;;;;14.85;8.15;;;;;;;4.79;100.00;99539.19;5070870;28;20439;-67
2023/01/25 02:51:46;;;;;;;11.85;8.25;;;;;;;4.83;100.00;99537.25;5095427;27;20063;-66
2023/01/25 02:54:13;;;;;;;12.05;8.10;;;;;;;4.67;100.00;99537.28;5084815;28;20066;-65
2023/01/25 02:56:41;;;;;;;12.07;8.40;;;;;;;4.73;100.00;99534.38;5105506;27;20552;-65
2023/01/25 02:59:12;;;;;;;12.23;8.38;;;;;;;4.78;100.00;99534.97;5071407;28;20080;-65
2023/01/25 03:01:39;;;;;;;12.98;7.72;;;;;;;4.79;99.80;99530.63;5085561;27;20049;-65
2023/01/25 03:04:06;;;;;;;14.50;8.23;;;;;;;4.70;100.00;99531.97;5063611;28;20485;-67
2023/01/25 03:06:32;;;;;;;12.93;8.65;;;;;;;4.59;100.00;99531.72;5083732;27;20028;-66
2023/01/25 03:08:58;;;;;;;15.32;9.40;;;;;;;4.57;100.00;99512.94;5081926;28;20574;-66
2023/01/25 03:11:24;;;;;;;14.10;8.90;;;;;;;4.64;100.00;99524.59;5067191;27;20032;-66
2023/01/25 03:13:49;;;;;;;13.82;8.80;;;;;;;4.49;100.00;99523.69;5070267;28;20114;-66
2023/01/25 03:16:15;;;;;;;13.45;8.63;;;;;;;4.53;100.00;99520.03;5061095;28;20400;-67
2023/01/25 03:18:41;;;;;;;14.13;8.70;;;;;;;4.55;100.00;99522.50;5086546;28;20043;-66
2023/01/25 03:21:12;;;;;;;13.77;8.88;;;;;;;4.50;100.00;99519.34;5080247;28;20020;-66
2023/01/25 03:23:38;;;;;;;16.38;8.88;;;;;;;4.61;99.56;99527.31;5076198;28;20028;-66
2023/01/25 03:26:05;;;;;;;12.95;9.05;;;;;;;4.37;98.48;99488.28;5069462;28;20031;-66
2023/01/25 03:28:31;;;;;;;13.57;9.68;;;;;;;4.46;97.96;99486.97;5086632;27;20024;-65
2023/01/25 03:30:57;;;;;;;13.10;9.20;;;;;;;4.53;97.89;99501.16;5071310;28;20035;-67
2023/01/25 03:33:22;;;;;;;14.60;9.23;;;;;;;4.82;97.67;99543.34;5071038;28;20035;-65
2023/01/25 03:35:52;;;;;;;16.05;9.98;;;;;;;4.73;98.36;99507.78;5086983;28;20420;-66
2023/01/25 03:38:19;;;;;;;;;;;;;;;4.86;98.00;99537.09;5085696;28;20545;-67
2023/01/25 03:40:44;;;;;;;13.93;8.35;;;;;;;4.88;97.86;99526.72;5081715;28;20425;-66
2023/01/25 03:43:10;;;;;;;15.35;9.75;;;;;;;4.88;98.24;99521.56;5066793;28;20042;-68
2023/01/25 03:45:37;;;;;;;13.27;8.80;;;;;;;4.86;98.81;99531.94;5083419;28;20087;-67
2023/01/25 03:48:02;;;;;;;15.35;9.73;;;;;;;4.76;99.44;99529.06;5083976;27;20027;-67
2023/01/25 03:50:28;;;;;;;14.85;9.65;;;;;;;4.87;99.28;99519.88;5065468;28;20370;-66
2023/01/25 03:53:30;;;;;;;15.32;10.55;;;;;;;4.88;99.50;99519.81;5068673;27;20131;-66
2023/01/25 03:56:07;;;;;;;17.27;10.23;;;;;;;4.96;100.00;99521.94;5079640;28;20038;-65
2023/01/25 03:58:33;;;;;;;17.40;10.90;;;;;;;4.98;100.00;99514.94;5095029;28;20028;-66
2023/01/25 04:01:00;;;;;;;19.13;12.10;;;;;;;5.02;100.00;99519.03;5077885;28;20031;-67
2023/01/25 04:03:26;;;;;;;16.42;10.25;;;;;;;4.78;100.00;99509.19;5064609;28;20031;-67
2023/01/25 04:05:52;;;;;;;16.17;9.85;;;;;;;4.81;100.00;99497.88;5072615;28;20120;-65
2023/01/25 04:08:18;;;;;;;16.73;10.57;;;;;;;4.79;100.00;99500.53;5067860;28;20047;-69
2023/01/25 04:10:51;;;;;;;14.85;9.95;;;;;;;4.81;100.00;99519.31;5085249;28;20063;-66
2023/01/25 04:13:16;;;;;;;14.60;9.38;;;;;;;4.73;100.00;99510.38;5079136;28;20084;-64
2023/01/25 04:15:42;;;;;;;14.98;9.40;;;;;;;4.59;100.00;99511.13;5065983;28;20035;-66
2023/01/25 04:18:07;;;;;;;14.40;9.75;;;;;;;4.43;100.00;99478.50;5067329;27;20023;-66
2023/01/25 04:20:32;;;;;;;14.15;9.90;;;;;;;4.68;100.00;99517.50;5101902;28;20057;-65
2023/01/25 04:22:58;;;;;;;15.57;10.02;;;;;;;4.56;100.00;99521.59;5100887;28;20770;-67
2023/01/25 04:25:24;;;;;;;15.95;10.05;;;;;;;4.10;100.00;99457.16;5106599;28;20109;-67
2023/01/25 04:27:50;;;;;;;14.80;9.63;;;;;;;4.41;100.00;99505.22;5081723;28;20026;-66
2023/01/25 04:30:16;;;;;;;13.45;9.27;;;;;;;4.26;100.00;99464.88;5062731;28;20407;-66
2023/01/25 04:32:42;;;;;;;16.52;9.77;;;;;;;4.57;100.00;99498.31;5084428;28;20063;-66
2023/01/25 04:35:08;;;;;;;16.75;10.55;;;;;;;4.62;100.00;99495.50;5067242;28;20070;-68
2023/01/25 04:37:33;;;;;;;14.93;9.77;;;;;;;4.69;100.00;99504.56;5065273;28;20035;-66
2023/01/25 04:39:59;;;;;;;16.13;10.07;;;;;;;4.71;100.00;99499.28;5082706;28;20444;-66
2023/01/25 04:42:24;;;;;;;15.02;10.32;;;;;;;4.68;100.00;99489.19;5066727;28;20486;-66
2023/01/25 04:44:50;;;;;;;14.65;9.93;;;;;;;4.72;100.00;99496.63;5062568;28;20027;-66
2023/01/25 04:47:15;;;;;;;15.98;9.90;;;;;;;4.60;100.00;99485.28;5101308;28;20038;-66
2023/01/25 04:49:41;;;;;;;15.55;9.80;;;;;;;4.76;100.00;99480.09;5080521;28;20865;-66
2023/01/25 04:52:06;;;;;;;18.23;10.18;;;;;;;4.73;100.00;99488.00;5077681;28;20582;-66
2023/01/25 04:54:32;;;;;;;15.05;10.77;;;;;;;4.75;100.00;99493.91;5067594;28;20798;-66
2023/01/25 04:56:58;;;;;;;17.48;10.20;;;;;;;4.67;100.00;99484.94;5098909;28;20409;-65
2023/01/25 04:59:23;;;;;;;17.10;10.15;;;;;;;4.51;100.00;99446.31;5081286;28;20686;-66
2023/01/25 05:01:49;;;;;;;15.60;10.70;;;;;;;4.60;100.00;99482.72;5071524;28;20389;-67
2023/01/25 05:04:14;;;;;;;16.02;10.43;;;;;;;4.45;100.00;99480.13;5084022;28;20019;-65
2023/01/25 05:06:40;;;;;;;17.00;10.85;;;;;;;4.30;100.00;99468.94;5083684;28;20027;-64
2023/01/25 05:09:05;;;;;;;16.45;10.90;;;;;;;4.47;100.00;99463.66;5066560;28;20197;-66
2023/01/25 05:11:31;;;;;;;17.15;11.00;;;;;;;4.47;100.00;99435.34;5086628;28;20031;-66
2023/01/25 05:13:56;;;;;;;17.30;10.65;;;;;;;4.57;100.00;99451.13;5064978;28;20027;-65
2023/01/25 05:16:22;;;;;;;17.00;11.18;;;;;;;4.60;100.00;99453.53;5080166;28;20477;-65
2023/01/25 05:18:47;;;;;;;18.45;11.45;;;;;;;4.50;100.00;99445.50;5056644;28;20035;-66
2023/01/25 05:22:13;;;;;;;18.45;11.95;;;;;;;4.52;100.00;99446.22;5070573;28;20047;-65
2023/01/25 05:24:07;;;;;;;17.52;11.55;;;;;;;4.36;100.00;99441.13;5066369;28;20411;-67
2023/01/25 05:29:18;;;;;;;15.75;10.57;;;;;;;4.26;100.00;99403.09;5087264;28;20504;-66
2023/01/25 05:31:43;;;;;;;15.82;11.35;;;;;;;4.30;100.00;99433.72;5082803;28;20107;-65
2023/01/25 05:34:09;;;;;;;19.33;11.13;;;;;;;4.18;100.00;99426.66;5077334;28;20102;-67
2023/01/25 05:36:34;;;;;;;14.95;10.38;;;;;;;4.27;100.00;99428.75;5078294;28;20084;-68
2023/01/25 05:39:00;;;;;;;19.55;10.77;;;;;;;4.26;100.00;99423.69;5062952;28;20520;-67
2023/01/25 05:41:26;;;;;;;15.98;10.25;;;;;;;4.30;100.00;99436.28;5061944;28;20039;-66
2023/01/25 05:43:52;;;;;;;17.67;11.40;;;;;;;4.26;100.00;99436.56;5067587;28;20028;-66
2023/01/25 05:46:17;;;;;;;19.75;11.95;;;;;;;4.20;100.00;99442.88;5067558;28;20524;-66
2023/01/25 05:48:43;;;;;;;16.75;10.00;;;;;;;4.23;100.00;99443.53;5098213;28;20442;-67
2023/01/25 05:51:08;;;;;;;20.13;12.65;;;;;;;4.21;100.00;99447.09;5088455;28;20509;-66
2023/01/25 05:53:34;;;;;;;19.98;11.25;;;;;;;4.24;100.00;99452.09;5088559;28;20435;-67
2023/01/25 05:56:06;;;;;;;19.30;11.73;;;;;;;4.24;100.00;99445.19;5086174;28;20454;-67
2023/01/25 05:58:32;;;;;;;18.73;11.90;;;;;;;4.26;100.00;99447.69;5063950;28;20623;-66
2023/01/25 06:01:01;;;;;;;17.63;11.30;;;;;;;3.91;100.00;99400.72;5068264;28;20118;-66
2023/01/25 06:03:27;;;;;;;19.50;11.63;;;;;;;4.14;100.00;99435.47;5061192;28;20027;-67
2023/01/25 06:05:57;;;;;;;20.20;12.52;;;;;;;4.26;100.00;99445.09;5068463;28;20039;-66
2023/01/25 06:08:23;;;;;;;20.10;11.82;;;;;;;4.28;100.00;99445.03;5079108;28;20028;-66
2023/01/25 06:10:49;;;;;;;18.45;11.90;;;;;;;4.41;100.00;99457.13;5086422;28;20059;-66
2023/01/25 06:13:14;;;;;;;20.20;12.30;;;;;;;4.37;100.00;99455.63;5079996;28;20169;-66
2023/01/25 06:15:40;;;;;;;19.85;12.18;;;;;;;4.27;100.00;99449.34;5068381;28;20027;-66
2023/01/25 06:18:05;;;;;;;22.30;12.65;;;;;;;4.32;100.00;99438.78;5087740;28;20074;-66
2023/01/25 06:20:31;;;;;;;17.02;11.43;;;;;;;4.29;100.00;99442.38;5084354;28;20099;-66
2023/01/25 06:22:56;;;;;;;18.88;12.20;;;;;;;4.31;100.00;99443.13;5088669;28;20554;-66
2023/01/25 06:25:22;;;;;;;20.52;13.20;;;;;;;4.22;100.00;99435.91;5064535;28;20178;-66
2023/01/25 06:27:49;;;;;;;18.85;12.23;;;;;;;4.23;100.00;99419.53;5086579;28;20023;-65
2023/01/25 06:30:15;;;;;;;21.02;13.43;;;;;;;4.30;100.00;99431.13;5102759;27;20038;-66
2023/01/25 06:32:40;;;;;;;20.10;12.73;;;;;;;4.24;100.00;99419.44;5065735;27;20649;-66
2023/01/25 06:35:07;;;;;;;19.60;12.50;;;;;;;4.18;100.00;99411.22;5058549;28;20451;-67
2023/01/25 06:37:32;;;;;;;20.48;12.88;;;;;;;4.21;100.00;99436.78;5063891;27;20058;-66
2023/01/25 06:39:58;;;;;;;19.92;12.80;;;;;;;4.25;100.00;99427.97;5083674;28;20055;-68
2023/01/25 06:42:24;;;;;;;20.70;12.77;;;;;;;4.24;100.00;99423.78;5081411;28;20073;-66
2023/01/25 06:44:49;;;;;;;20.63;12.57;;;;;;;3.78;100.00;99373.06;5067864;28;20034;-66
2023/01/25 06:47:15;;;;;;;18.77;12.63;;;;;;;4.13;100.00;99426.09;5071369;28;20560;-66
2023/01/25 06:49:40;;;;;;;19.02;12.70;;;;;;;4.10;100.00;99395.38;5068511;27;20044;-68
2023/01/25 06:52:06;;;;;;;21.60;13.30;;;;;;;4.17;100.00;99410.38;5092319;28;20027;-65
2023/01/25 06:54:31;;;;;;;21.05;13.57;;;;;;;4.22;100.00;99410.97;5067852;28;20066;-65
2023/01/25 06:56:57;;;;;;;21.38;13.50;;;;;;;4.18;100.00;99404.34;5067060;28;20658;-66
2023/01/25 06:59:22;;;;;;;20.27;13.75;;;;;;;4.08;100.00;99412.66;5072263;28;20035;-67
2023/01/25 07:01:47;;;;;;;22.15;12.95;;;;;;;4.03;100.00;99405.16;5103154;28;20371;-65
2023/01/25 07:04:13;;;;;;;19.33;13.45;;;;;;;3.91;100.00;99382.69;5086784;28;20055;-66
2023/01/25 07:06:39;;;;;;;23.65;12.95;;;;;;;4.00;100.00;99405.34;5083787;27;20064;-66
2023/01/25 07:09:06;;;;;;;20.95;12.43;;;;;;;4.07;100.00;99409.25;5076116;28;20020;-66
2023/01/25 07:11:32;;;;;;;19.63;11.45;;;;;;;4.11;100.00;99412.50;5085081;28;20032;-66
2023/01/25 07:13:59;;;;;;;20.02;12.07;;;;;;;4.04;100.00;99417.13;5076503;28;20063;-66
2023/01/25 07:16:25;;;;;;;20.63;13.18;;;;;;;4.04;100.00;99412.00;5080203;28;20032;-65
2023/01/25 07:18:50;;;;;;;20.13;12.20;;;;;;;4.09;100.00;99404.00;5068049;28;20634;-66
2023/01/25 07:21:19;;;;;;;20.58;12.95;;;;;;;4.18;100.00;99401.78;5071062;28;20066;-66
2023/01/25 07:23:45;;;;;;;22.55;13.18;;;;;;;3.90;100.00;99356.13;5066815;28;20508;-67
2023/01/25 07:26:17;;;;;;;21.33;12.35;;;;;;;4.17;100.00;99414.72;5080217;28;20095;-66
2023/01/25 07:28:44;;;;;;;23.88;12.32;;;;;;;4.14;100.00;99409.72;5080383;28;20569;-69
2023/01/25 07:31:09;;;;;;;27.17;12.52;;;;;;;3.89;100.00;99375.06;5082150;28;20027;-67
2023/01/25 07:33:35;;;;;;;22.67;12.63;;;;;;;4.07;100.00;99404.09;5087996;28;20030;-67
2023/01/25 07:36:06;;;;;;;20.67;12.05;;;;;;;4.09;100.00;99404.00;5060220;28;20038;-66
2023/01/25 07:38:31;;;;;;;20.40;12.80;;;;;;;4.05;100.00;99411.06;5085715;28;20626;-66
2023/01/25 07:40:57;;;;;;;19.17;12.10;;;;;;;4.00;100.00;99403.59;5066611;28;20034;-66
2023/01/25 07:43:24;;;;;;;20.85;12.68;;;;;;;3.71;100.00;99351.16;5067704;28;20028;-67
2023/01/25 07:45:49;;;;;;;20.88;12.20;;;;;;;4.08;100.00;99403.19;5068138;28;20019;-68
2023/01/25 07:48:16;;;;;;;24.70;12.63;;;;;;;4.17;100.00;99400.09;5074874;28;20336;-66
2023/01/25 07:50:45;;;;;;;22.05;12.10;;;;;;;3.95;100.00;99366.16;5068679;28;20101;-65
2023/01/25 07:53:11;;;;;;;19.10;11.82;;;;;;;4.15;100.00;99403.69;5068550;28;20061;-67
2023/01/25 07:55:37;;;;;;;20.40;13.25;;;;;;;4.16;100.00;99413.03;5081299;28;20027;-66
2023/01/25 07:58:02;;;;;;;22.80;12.95;;;;;;;4.11;100.00;99404.78;5067175;28;20043;-66
2023/01/25 08:00:28;;;;;;;21.92;13.63;;;;;;;4.15;100.00;99411.41;5066545;28;20027;-67
2023/01/25 08:02:53;;;;;;;25.05;13.98;;;;;;;4.26;100.00;99413.38;5100596;28;20630;-66
2023/01/25 08:05:19;;;;;;;21.55;13.65;;;;;;;4.23;100.00;99406.66;5067372;28;20034;-68
2023/01/25 08:07:45;;;;;;;24.65;14.73;;;;;;;3.97;100.00;99351.47;5102100;28;20099;-67
2023/01/25 08:10:11;;;;;;;23.38;14.15;;;;;;;4.33;100.00;99405.22;5100912;28;20035;-66
2023/01/25 08:12:37;;;;;;;23.08;14.82;;;;;;;4.28;100.00;99391.78;5080577;28;20031;-66
2023/01/25 08:15:03;;;;;;;28.63;14.90;;;;;;;4.41;100.00;99407.38;5083418;28;20027;-66
2023/01/25 08:17:32;;;;;;;25.50;15.23;;;;;;;4.48;100.00;99400.97;5098490;28;20124;-66
2023/01/25 08:19:59;;;;;;;27.25;15.45;;;;;;;4.08;100.00;99356.03;5084658;28;20026;-66
2023/01/25 08:22:25;;;;;;;27.05;16.13;;;;;;;4.45;100.00;99402.88;5082640;28;20070;-67
2023/01/25 08:24:51;;;;;;;22.88;14.65;;;;;;;4.43;100.00;99396.09;5066033;28;20024;-66
2023/01/25 08:27:16;;;;;;;27.58;16.25;;;;;;;4.35;100.00;99395.66;5065315;28;20020;-67
2023/01/25 08:29:42;;;;;;;28.70;16.10;;;;;;;4.41;100.00;99392.75;5083024;28;20336;-67
2023/01/25 08:32:07;;;;;;;25.83;14.40;;;;;;;4.43;100.00;99390.09;5064639;28;20040;-67
2023/01/25 08:34:33;;;;;;;27.85;15.85;;;;;;;4.42;100.00;99385.88;5068996;28;20028;-67
2023/01/25 08:36:59;;;;;;;23.73;15.45;;;;;;;4.48;100.00;99388.09;5072881;28;20143;-66
2023/01/25 08:39:25;;;;;;;26.08;16.05;;;;;;;4.28;100.00;99370.38;5057294;28;20020;-67
2023/01/25 08:41:51;;;;;;;28.23;16.05;;;;;;;4.52;100.00;99393.91;5075904;28;20022;-68
2023/01/25 08:44:21;;;;;;;30.83;16.83;;;;;;;4.45;100.00;99375.38;5088112;28;20098;-67
2023/01/25 08:46:46;;;;;;;27.27;16.13;;;;;;;4.62;100.00;99395.88;5066831;28;20486;-67
2023/01/25 08:49:12;;;;;;;28.30;17.05;;;;;;;4.52;100.00;99381.84;5068169;28;20028;-67
2023/01/25 08:51:39;;;;;;;28.83;16.63;;;;;;;4.56;100.00;99396.22;5067681;28;20119;-68
2023/01/25 08:54:05;;;;;;;27.35;15.95;;;;;;;4.65;100.00;99389.69;5076374;28;20024;-67
2023/01/25 08:56:31;;;;;;;26.65;15.50;;;;;;;4.69;100.00;99386.03;5086285;28;20108;-68
2023/01/25 08:58:56;;;;;;;26.13;16.02;;;;;;;4.73;100.00;99384.94;5087693;28;20034;-69
2023/01/25 09:01:22;;;;;;;25.05;14.80;;;;;;;4.59;100.00;99366.88;5052485;28;20509;-67
2023/01/25 09:03:49;;;;;;;25.98;15.32;;;;;;;4.24;100.00;99324.19;5068315;28;20020;-67
2023/01/25 09:06:15;;;;;;;22.25;13.20;;;;;;;4.53;100.00;99374.97;5069550;28;20058;-67
2023/01/25 09:08:41;;;;;;;23.85;14.00;;;;;;;4.46;100.00;99376.22;5051234;28;20031;-67
2023/01/25 09:11:13;;;;;;;22.85;13.57;;;;;;;4.30;100.00;99366.78;5059208;28;21023;-67
2023/01/25 09:13:42;;;;;;;22.88;13.65;;;;;;;4.30;100.00;99365.94;5073228;28;20513;-65
2023/01/25 09:16:13;;;;;;;23.55;14.25;;;;;;;4.31;100.00;99358.16;5068546;28;20032;-67
2023/01/25 09:18:40;;;;;;;22.05;14.48;;;;;;;4.31;100.00;99359.88;5085297;28;20028;-67
2023/01/25 09:21:10;;;;;;;23.83;13.75;;;;;;;4.35;100.00;99362.19;5068316;28;20031;-67
2023/01/25 09:23:35;;;;;;;;;;;;;;;4.41;100.00;99361.03;5071189;28;20508;-67
2023/01/25 09:26:01;;;;;;;20.92;12.98;;;;;;;4.08;100.00;99307.13;5073186;28;19949;-66
2023/01/25 09:28:28;;;;;;;21.38;12.70;;;;;;;4.29;100.00;99356.56;5055342;28;20151;-67
2023/01/25 09:31:02;;;;;;;22.05;13.57;;;;;;;4.14;100.00;99312.75;5079735;28;20027;-67
2023/01/25 09:33:29;;;;;;;22.40;14.32;;;;;;;4.52;100.00;99352.69;5070070;28;20204;-67
2023/01/25 09:35:55;;;;;;;24.23;13.88;;;;;;;4.46;100.00;99351.28;5062189;28;20219;-67
2023/01/25 09:38:20;;;;;;;21.48;13.40;;;;;;;4.41;100.00;99353.28;5061618;28;20501;-68
2023/01/25 09:41:01;;;;;;;21.98;13.48;;;;;;;4.44;100.00;99342.84;5069587;28;20035;-69
2023/01/25 09:43:31;;;;;;;23.63;13.65;;;;;;;4.49;100.00;99355.44;5072441;28;20031;-69
2023/01/25 09:45:56;;;;;;;;;;;;;;;4.51;100.00;99340.72;5062355;28;20104;-69
2023/01/25 09:48:33;;;;;;;21.85;13.32;;;;;;;4.38;100.00;99335.44;5071874;28;20334;-68
2023/01/25 09:51:12;;;;;;;24.80;13.48;;;;;;;4.42;100.00;99344.66;5054844;28;20065;-68
2023/01/25 09:53:40;;;;;;;21.45;13.57;;;;;;;4.36;100.00;99332.97;5062137;28;20142;-68
2023/01/25 09:56:23;;;;;;;24.00;14.95;;;;;;;4.50;100.00;99346.78;5069828;28;20028;-68
2023/01/25 09:58:51;;;;;;;22.45;13.52;;;;;;;4.53;100.00;99354.34;5078405;28;20076;-66
2023/01/25 10:01:24;;;;;;;22.80;13.82;;;;;;;4.53;100.00;99336.31;5070043;28;20036;-68
2023/01/25 10:03:56;;;;;;;24.85;14.98;;;;;;;4.41;100.00;99304.38;5087049;28;20074;-68
2023/01/25 10:06:26;;;;;;;21.88;14.38;;;;;;;4.59;100.00;99328.22;5070731;28;20036;-69
2023/01/25 10:09:00;;;;;;;22.65;14.20;;;;;;;4.53;100.00;99287.38;5070344;28;20024;-68
2023/01/25 10:11:27;;;;;;;30.48;16.95;;;;;;;4.84;100.00;99334.50;5072394;28;20119;-66
2023/01/25 10:13:57;;;;;;;28.67;17.30;;;;;;;4.96;100.00;99332.03;5068272;28;20024;-67
2023/01/25 10:16:28;;;;;;;29.27;17.65;;;;;;;4.73;100.00;99284.47;5055512;28;20124;-67
2023/01/25 10:19:02;;;;;;;27.67;17.60;;;;;;;5.08;100.00;99322.75;5067579;28;20139;-67
2023/01/25 10:21:38;;;;;;;31.38;18.55;;;;;;;5.08;100.00;99301.31;5069152;28;20036;-68
2023/01/25 10:24:13;;;;;;;31.30;17.60;;;;;;;5.24;100.00;99304.63;5086171;28;20020;-68
2023/01/25 10:26:42;;;;;;;28.85;17.80;;;;;;;5.38;100.00;99308.91;5088222;27;20035;-67
2023/01/25 10:29:26;;;;;;;29.03;17.67;;;;;;;5.46;100.00;99308.44;5053083;28;20150;-67
2023/01/25 10:32:01;;;;;;;28.73;17.15;;;;;;;5.47;100.00;99295.44;5059789;28;20270;-67
2023/01/25 10:34:53;;;;;;;30.83;17.83;;;;;;;5.29;100.00;99250.16;5070337;28;20047;-67
2023/01/25 10:37:23;;;;;;;27.77;16.70;;;;;;;5.72;98.93;99319.72;5077962;28;20632;-67
2023/01/25 10:40:09;;;;;;;29.20;15.93;;;;;;;5.75;99.33;99319.53;5088251;28;20547;-66
2023/01/25 10:42:43;;;;;;;31.95;17.30;;;;;;;5.80;99.46;99307.16;5056547;28;20055;-67
2023/01/25 10:45:13;;;;;;;27.83;15.93;;;;;;;5.82;99.13;99304.47;5069698;28;20031;-66
2023/01/25 10:47:40;;;;;;;;;;;;;;;5.83;98.63;99311.31;5071501;28;20279;-67
2023/01/25 10:50:07;;;;;;;29.35;15.75;;;;;;;5.83;97.37;99300.97;5053106;28;19921;-66
2023/01/25 10:52:36;;;;;;;27.63;15.82;;;;;;;5.93;95.19;99286.53;5087003;27;20036;-67
2023/01/25 10:55:16;;;;;;;29.25;16.73;;;;;;;6.08;95.27;99289.94;5086608;28;20032;-67
2023/01/25 10:57:43;;;;;;;27.30;16.75;;;;;;;6.11;94.37;99294.88;5052916;28;20050;-67
2023/01/25 11:00:21;;;;;;;29.55;16.17;;;;;;;6.10;93.34;99282.91;5085870;28;20123;-67
2023/01/25 11:02:47;;;;;;;28.02;15.32;;;;;;;6.15;92.74;99286.00;5086821;28;20035;-67
2023/01/25 11:05:26;;;;;;;27.33;15.82;;;;;;;6.22;93.00;99282.09;5052339;28;20031;-67
2023/01/25 11:07:52;;;;;;;27.85;15.98;;;;;;;6.23;90.77;99275.19;5076929;28;20032;-67
2023/01/25 11:10:32;;;;;;;29.55;16.63;;;;;;;6.26;91.42;99267.22;5069830;28;20066;-67
2023/01/25 11:13:16;;;;;;;32.53;17.50;;;;;;;6.31;91.90;99260.00;5050596;28;20036;-67
2023/01/25 11:15:48;;;;;;;28.75;16.38;;;;;;;6.20;92.54;99250.38;5068962;28;20036;-67
2023/01/25 11:18:21;;;;;;;29.35;17.08;;;;;;;6.26;93.12;99250.00;5050703;28;20171;-67
2023/01/25 11:20:49;;;;;;;28.63;15.90;;;;;;;6.35;92.33;99253.69;5077158;28;20490;-68
2023/01/25 11:23:25;;;;;;;32.78;17.40;;;;;;;5.98;92.34;99196.75;5067023;28;20030;-67
2023/01/25 11:25:51;;;;;;;32.13;17.67;;;;;;;5.95;92.17;99192.63;5062507;28;20062;-68
2023/01/25 11:28:24;;;;;;;30.52;17.45;;;;;;;6.08;91.67;99192.66;5076966;28;20035;-68
2023/01/25 11:30:51;;;;;;;32.53;17.88;;;;;;;6.38;91.62;99235.44;5052246;28;20032;-68